Time;durP1;ratioP1;P1;durP2;ratioP2;P2;SDS_P1;SDS_P2;PMS_P1;PMS_P2;Temp;Humidity;BMP_temperature;BMP_pressure;BME280_temperature;BME280_humidity;BME280_pressure;Samples;Min_cycle;Max_cycle;Signal;HPM_P1;HPM_P2
2022/04/03 00:01:48;;;;;;;;;;;;;;;;;;4219640;28;960;-53
2022/04/03 00:04:09;;;;;;;;;;;;;;;;;;4219848;28;949;-53
2022/04/03 00:06:30;;;;;;;;;;;;;;;;;;4222010;28;1062;-53
2022/04/03 00:08:51;;;;;;;;;;;;;;;;;;4222646;28;970;-53
2022/04/03 00:11:12;;;;;;;;;;;;;;;;;;4222622;28;1155;-53
2022/04/03 00:13:32;;;;;;;;;;;;;;;;;;4221296;28;1106;-53
2022/04/03 00:15:53;;;;;;;;;;;;;;;;;;4222357;28;1180;-53
2022/04/03 00:18:14;;;;;;;;;;;;;;;;;;4222430;28;966;-53
2022/04/03 00:20:35;;;;;;;;;;;;;;;;;;4222438;28;967;-53
2022/04/03 00:22:56;;;;;;;;;;;;;;;;;;4221279;28;939;-53
2022/04/03 00:25:18;;;;;;;;;;;;;;;;;;4222467;28;947;-53
2022/04/03 00:27:39;;;;;;;;;;;;;;;;;;4221137;28;978;-53
2022/04/03 00:29:59;;;;;;;;;;;;;;;;;;4222043;28;1312;-53
2022/04/03 00:32:20;;;;;;;;;;;;;;;;;;4222186;28;1190;-53
2022/04/03 00:34:41;;;;;;;;;;;;;;;;;;4222614;28;1902;-53
2022/04/03 00:37:01;;;;;;;;;;;;;;;;;;4222397;28;1102;-53
2022/04/03 00:39:22;;;;;;;;;;;;;;;;;;4222532;28;1293;-53
2022/04/03 00:41:43;;;;;;;;;;;;;;;;;;4222501;28;996;-53
2022/04/03 00:44:04;;;;;;;;;;;;;;;;;;4222534;28;1283;-53
2022/04/03 00:46:25;;;;;;;;;;;;;;;;;;4222447;28;995;-53
2022/04/03 00:48:47;;;;;;;;;;;;;;;;;;4222657;28;1009;-53
2022/04/03 00:51:07;;;;;;;;;;;;;;;;;;4222155;28;978;-53
2022/04/03 00:53:28;;;;;;;;;;;;;;;;;;4222685;28;825;-53
2022/04/03 00:55:49;;;;;;;;;;;;;;;;;;4221950;28;1981;-53
2022/04/03 00:58:10;;;;;;;;;;;;;;;;;;4221779;28;1146;-53
2022/04/03 01:03:59;;;;;;;;;;;;;;;;;;4204727;28;949;-54
2022/04/03 01:06:20;;;;;;;;;;;;;;;;;;4204774;28;1122;-56
2022/04/03 01:08:42;;;;;;;;;;;;;;;;;;4204655;28;1069;-53
2022/04/03 01:11:02;;;;;;;;;;;;;;;;;;4204738;28;1392;-53
2022/04/03 01:13:25;;;;;;;;;;;;;;;;;;4204259;28;1317;-53
2022/04/03 01:15:46;;;;;;;;;;;;;;;;;;4204598;28;1989;-53
2022/04/03 01:18:08;;;;;;;;;;;;;;;;;;4203775;28;1301;-53
2022/04/03 01:20:29;;;;;;;;;;;;;;;;;;4202950;28;1142;-53
2022/04/03 01:22:50;;;;;;;;;;;;;;;;;;4204352;28;1057;-53
2022/04/03 01:25:11;;;;;;;;;;;;;;;;;;4204967;28;966;-53
2022/04/03 01:27:32;;;;;;;;;;;;;;;;;;4204827;28;996;-54
2022/04/03 01:29:53;;;;;;;;;;;;;;;;;;4204901;28;892;-53
2022/04/03 01:32:13;;;;;;;;;;;;;;;;;;4203729;28;1079;-53
2022/04/03 01:34:33;;;;;;;;;;;;;;;;;;4219323;28;1909;-53
2022/04/03 01:36:54;;;;;;;;;;;;;;;;;;4221237;28;1171;-53
2022/04/03 01:39:15;;;;;;;;;;;;;;;;;;4221213;28;978;-53
2022/04/03 01:41:36;;;;;;;;;;;;;;;;;;4221409;28;953;-53
2022/04/03 01:43:56;;;;;;;;;;;;;;;;;;4221155;28;1059;-54
2022/04/03 01:46:17;;;;;;;;;;;;;;;;;;4221303;28;981;-53
2022/04/03 01:48:38;;;;;;;;;;;;;;;;;;4221416;28;952;-53
2022/04/03 01:50:59;;;;;;;;;;;;;;;;;;4221141;28;1016;-53
2022/04/03 01:53:20;;;;;;;;;;;;;;;;;;4221502;28;1012;-54
2022/04/03 01:55:41;;;;;;;;;;;;;;;;;;4220108;28;1975;-53
2022/04/03 01:58:06;;;;;;;;;;;;;;;;;;4220747;28;926;-53
2022/04/03 02:00:27;;;;;;;;;;;;;;;;;;4221264;28;1211;-53
2022/04/03 02:02:50;;;;;;;;;;;;;;;;;;4221210;28;1108;-53
2022/04/03 02:05:11;;;;;;;;;;;;;;;;;;4221000;28;969;-53
2022/04/03 02:07:33;;;;;;;;;;;;;;;;;;4221228;28;1052;-53
2022/04/03 02:09:53;;;;;;;;;;;;;;;;;;4220946;28;1026;-54
2022/04/03 02:12:14;;;;;;;;;;;;;;;;;;4220385;28;1233;-53
2022/04/03 02:14:35;;;;;;;;;;;;;;;;;;4220891;28;1909;-53
2022/04/03 02:16:55;;;;;;;;;;;;;;;;;;4220787;28;1137;-53
2022/04/03 02:19:16;;;;;;;;;;;;;;;;;;4220888;28;1089;-53
2022/04/03 02:21:37;;;;;;;;;;;;;;;;;;4221177;28;1201;-53
2022/04/03 02:23:57;;;;;;;;;;;;;;;;;;4220797;28;954;-54
2022/04/03 02:26:19;;;;;;;;;;;;;;;;;;4220393;28;1190;-53
2022/04/03 02:28:39;;;;;;;;;;;;;;;;;;4220331;28;1114;-53
2022/04/03 02:31:00;;;;;;;;;;;;;;;;;;4220824;28;956;-53
2022/04/03 02:33:20;;;;;;;;;;;;;;;;;;4220898;28;1166;-53
2022/04/03 02:35:41;;;;;;;;;;;;;;;;;;4220644;28;1984;-53
2022/04/03 02:38:02;;;;;;;;;;;;;;;;;;4220633;28;978;-54
2022/04/03 02:40:22;;;;;;;;;;;;;;;;;;4220586;28;977;-53
2022/04/03 02:42:44;;;;;;;;;;;;;;;;;;4220481;28;1012;-53
2022/04/03 02:45:05;;;;;;;;;;;;;;;;;;4220518;28;1056;-53
2022/04/03 02:47:26;;;;;;;;;;;;;;;;;;4220753;28;1182;-53
2022/04/03 02:49:46;;;;;;;;;;;;;;;;;;4220985;28;1220;-53
2022/04/03 02:52:07;;;;;;;;;;;;;;;;;;4220878;28;1119;-54
2022/04/03 02:54:27;;;;;;;;;;;;;;;;;;4220674;28;970;-53
2022/04/03 02:56:48;;;;;;;;;;;;;;;;;;4220396;28;1020;-53
2022/04/03 02:59:09;;;;;;;;;;;;;;;;;;4220234;28;918;-53
2022/04/03 03:01:29;;;;;;;;;;;;;;;;;;4220711;28;1185;-53
2022/04/03 03:03:51;;;;;;;;;;;;;;;;;;4219283;28;1229;-53
2022/04/03 03:06:12;;;;;;;;;;;;;;;;;;4220188;28;1212;-53
2022/04/03 03:08:32;;;;;;;;;;;;;;;;;;4220795;28;807;-53
2022/04/03 03:10:53;;;;;;;;;;;;;;;;;;4220300;28;944;-53
2022/04/03 03:13:13;;;;;;;;;;;;;;;;;;4219825;28;1044;-53
2022/04/03 03:15:34;;;;;;;;;;;;;;;;;;4220147;28;1910;-53
2022/04/03 03:17:55;;;;;;;;;;;;;;;;;;4220166;28;960;-53
2022/04/03 03:20:16;;;;;;;;;;;;;;;;;;4219769;28;1187;-53
2022/04/03 03:22:37;;;;;;;;;;;;;;;;;;4219810;28;1214;-53
2022/04/03 03:24:58;;;;;;;;;;;;;;;;;;4219978;28;1288;-53
2022/04/03 03:27:19;;;;;;;;;;;;;;;;;;4220033;28;1016;-53
2022/04/03 03:29:39;;;;;;;;;;;;;;;;;;4220463;28;985;-53
2022/04/03 03:32:00;;;;;;;;;;;;;;;;;;4220108;28;1105;-53
2022/04/03 03:34:21;;;;;;;;;;;;;;;;;;4219681;28;976;-53
2022/04/03 03:36:41;;;;;;;;;;;;;;;;;;4219520;28;1909;-53
2022/04/03 03:39:02;;;;;;;;;;;;;;;;;;4219742;28;1016;-53
2022/04/03 03:41:23;;;;;;;;;;;;;;;;;;4218910;28;998;-54
2022/04/03 03:43:44;;;;;;;;;;;;;;;;;;4219223;28;1028;-53
2022/04/03 03:46:05;;;;;;;;;;;;;;;;;;4220045;28;1003;-54
2022/04/03 03:48:25;;;;;;;;;;;;;;;;;;4219453;28;855;-53
2022/04/03 03:50:46;;;;;;;;;;;;;;;;;;4219317;28;1170;-53
2022/04/03 03:53:06;;;;;;;;;;;;;;;;;;4219121;28;823;-53
2022/04/03 03:55:27;;;;;;;;;;;;;;;;;;4218628;28;2091;-53
2022/04/03 03:57:47;;;;;;;;;;;;;;;;;;4219127;28;950;-53
2022/04/03 04:00:10;;;;;;;;;;;;;;;;;;4218773;28;990;-56
2022/04/03 04:02:33;;;;;;;;;;;;;;;;;;4218809;28;989;-53
2022/04/03 04:04:54;;;;;;;;;;;;;;;;;;4218845;28;983;-53
2022/04/03 04:07:15;;;;;;;;;;;;;;;;;;4218824;28;1296;-53
2022/04/03 04:09:36;;;;;;;;;;;;;;;;;;4218801;28;1096;-55
2022/04/03 04:11:57;;;;;;;;;;;;;;;;;;4219288;28;834;-53
2022/04/03 04:14:18;;;;;;;;;;;;;;;;;;4218984;28;1102;-53
2022/04/03 04:16:39;;;;;;;;;;;;;;;;;;4218755;28;1993;-53
2022/04/03 04:19:00;;;;;;;;;;;;;;;;;;4217930;28;1247;-52
2022/04/03 04:21:21;;;;;;;;;;;;;;;;;;4219030;28;987;-53
2022/04/03 04:23:41;;;;;;;;;;;;;;;;;;4218989;28;813;-52
2022/04/03 04:26:02;;;;;;;;;;;;;;;;;;4218722;28;1267;-53
2022/04/03 04:28:23;;;;;;;;;;;;;;;;;;4218720;28;1287;-53
2022/04/03 04:30:44;;;;;;;;;;;;;;;;;;4217641;28;973;-53
2022/04/03 04:33:06;;;;;;;;;;;;;;;;;;4218728;28;1205;-53
2022/04/03 04:35:27;;;;;;;;;;;;;;;;;;4218917;28;1913;-53
2022/04/03 04:37:47;;;;;;;;;;;;;;;;;;4218557;28;1170;-53
2022/04/03 04:40:09;;;;;;;;;;;;;;;;;;4218716;28;974;-53
2022/04/03 04:42:30;;;;;;;;;;;;;;;;;;4218652;28;977;-53
2022/04/03 04:44:50;;;;;;;;;;;;;;;;;;4218812;28;1090;-54
2022/04/03 04:47:11;;;;;;;;;;;;;;;;;;4218906;28;1199;-52
2022/04/03 04:49:32;;;;;;;;;;;;;;;;;;4218824;28;874;-53
2022/04/03 04:51:53;;;;;;;;;;;;;;;;;;4218519;28;1186;-54
2022/04/03 04:54:14;;;;;;;;;;;;;;;;;;4220324;28;970;-53
2022/04/03 04:56:34;;;;;;;;;;;;;;;;;;4221312;28;1909;-53
2022/04/03 04:58:55;;;;;;;;;;;;;;;;;;4221479;28;956;-53
2022/04/03 05:01:16;;;;;;;;;;;;;;;;;;4221077;28;1392;-53
2022/04/03 05:03:37;;;;;;;;;;;;;;;;;;4221267;28;1008;-52
2022/04/03 05:05:57;;;;;;;;;;;;;;;;;;4221480;28;1275;-53
2022/04/03 05:08:18;;;;;;;;;;;;;;;;;;4221386;28;993;-53
2022/04/03 05:10:39;;;;;;;;;;;;;;;;;;4220985;28;1328;-53
2022/04/03 05:12:59;;;;;;;;;;;;;;;;;;4220965;28;1217;-53
2022/04/03 05:15:20;;;;;;;;;;;;;;;;;;4219943;28;2109;-52
2022/04/03 05:17:41;;;;;;;;;;;;;;;;;;4217644;28;1948;-53
2022/04/03 05:20:03;;;;;;;;;;;;;;;;;;4219278;28;954;-53
2022/04/03 05:22:25;;;;;;;;;;;;;;;;;;4218827;28;1573;-53
2022/04/03 05:24:47;;;;;;;;;;;;;;;;;;4219233;28;954;-53
2022/04/03 05:27:07;;;;;;;;;;;;;;;;;;4218898;28;972;-53
2022/04/03 05:29:28;;;;;;;;;;;;;;;;;;4219679;28;1336;-53
2022/04/03 05:31:49;;;;;;;;;;;;;;;;;;4219260;28;974;-53
2022/04/03 05:34:09;;;;;;;;;;;;;;;;;;4218868;28;1634;-53
2022/04/03 05:36:30;;;;;;;;;;;;;;;;;;4219038;28;1983;-52
2022/04/03 05:38:51;;;;;;;;;;;;;;;;;;4219199;28;1742;-52
2022/04/03 05:41:12;;;;;;;;;;;;;;;;;;4222026;28;1696;-53
2022/04/03 05:43:32;;;;;;;;;;;;;;;;;;4220078;28;960;-52
2022/04/03 05:45:53;;;;;;;;;;;;;;;;;;4221672;28;1816;-52
2022/04/03 05:48:14;;;;;;;;;;;;;;;;;;4225241;28;2001;-53
2022/04/03 05:50:37;;;;;;;;;;;;;;;;;;4218732;28;1714;-52
2022/04/03 05:52:58;;;;;;;;;;;;;;;;;;4219331;28;1618;-52
2022/04/03 05:55:19;;;;;;;;;;;;;;;;;;4218858;28;2101;-52
2022/04/03 05:57:40;;;;;;;;;;;;;;;;;;4216578;28;1985;-52
2022/04/03 06:00:01;;;;;;;;;;;;;;;;;;4216580;28;1713;-52
2022/04/03 06:02:22;;;;;;;;;;;;;;;;;;4216951;28;1344;-52
2022/04/03 06:04:42;;;;;;;;;;;;;;;;;;4220568;28;1261;-52
2022/04/03 06:07:03;;;;;;;;;;;;;;;;;;4235076;27;1012;-52
2022/04/03 06:09:24;;;;;;;;;;;;;;;;;;4235441;28;1040;-53
2022/04/03 06:11:45;;;;;;;;;;;;;;;;;;4220254;27;1284;-52
2022/04/03 06:14:06;;;;;;;;;;;;;;;;;;4219457;28;1311;-52
2022/04/03 06:16:27;;;;;;;;;;;;;;;;;;4219718;28;1991;-53
2022/04/03 06:18:47;;;;;;;;;;;;;;;;;;4217928;28;1026;-52
2022/04/03 06:21:09;;;;;;;;;;;;;;;;;;4218036;28;1312;-52
2022/04/03 06:23:30;;;;;;;;;;;;;;;;;;4219341;28;1217;-52
2022/04/03 06:25:50;;;;;;;;;;;;;;;;;;4219773;28;816;-52
2022/04/03 06:28:12;;;;;;;;;;;;;;;;;;4219313;28;976;-53
2022/04/03 06:30:32;;;;;;;;;;;;;;;;;;4219450;28;991;-53
2022/04/03 06:32:53;;;;;;;;;;;;;;;;;;4219249;28;1039;-56
2022/04/03 06:35:14;;;;;;;;;;;;;;;;;;4219159;28;1109;-56
2022/04/03 06:37:35;;;;;;;;;;;;;;;;;;4219184;28;1905;-56
2022/04/03 06:39:56;;;;;;;;;;;;;;;;;;4219729;28;938;-56
2022/04/03 06:42:17;;;;;;;;;;;;;;;;;;4220897;28;1108;-56
2022/04/03 06:44:38;;;;;;;;;;;;;;;;;;4220678;28;825;-57
2022/04/03 06:46:58;;;;;;;;;;;;;;;;;;4220089;28;989;-56
2022/04/03 06:49:19;;;;;;;;;;;;;;;;;;4220325;28;1087;-56
2022/04/03 06:51:40;;;;;;;;;;;;;;;;;;4220881;28;886;-56
2022/04/03 06:54:00;;;;;;;;;;;;;;;;;;4220391;28;1017;-56
2022/04/03 06:56:21;;;;;;;;;;;;;;;;;;4220236;28;1909;-57
2022/04/03 06:58:42;;;;;;;;;;;;;;;;;;4220773;28;1147;-56
2022/04/03 07:01:03;;;;;;;;;;;;;;;;;;4220093;28;1138;-56
2022/04/03 07:03:24;;;;;;;;;;;;;;;;;;4220325;28;1011;-56
2022/04/03 07:05:44;;;;;;;;;;;;;;;;;;4220305;28;1050;-56
2022/04/03 07:08:05;;;;;;;;;;;;;;;;;;4220586;28;1193;-57
2022/04/03 07:10:25;;;;;;;;;;;;;;;;;;4220732;28;997;-57
2022/04/03 07:12:46;;;;;;;;;;;;;;;;;;4219239;28;1723;-57
2022/04/03 07:15:11;;;;;;;;;;;;;;;;;;4217288;28;1522;-57
2022/04/03 07:17:32;;;;;;;;;;;;;;;;;;4201763;28;2000;-58
2022/04/03 07:19:53;;;;;;;;;;;;;;;;;;4201760;28;993;-57
2022/04/03 07:22:14;;;;;;;;;;;;;;;;;;4201704;28;890;-57
2022/04/03 07:24:35;;;;;;;;;;;;;;;;;;4203812;28;1195;-57
2022/04/03 07:26:55;;;;;;;;;;;;;;;;;;4203374;28;938;-56
2022/04/03 07:29:16;;;;;;;;;;;;;;;;;;4203487;28;957;-57
2022/04/03 07:31:37;;;;;;;;;;;;;;;;;;4203301;28;1228;-60
2022/04/03 07:33:58;;;;;;;;;;;;;;;;;;4204592;28;968;-56
2022/04/03 07:36:18;;;;;;;;;;;;;;;;;;4205216;28;1312;-56
2022/04/03 07:38:40;;;;;;;;;;;;;;;;;;4205479;28;814;-58
2022/04/03 07:41:00;;;;;;;;;;;;;;;;;;4205055;28;1104;-56
2022/04/03 07:43:22;;;;;;;;;;;;;;;;;;4204851;28;1011;-55
2022/04/03 07:45:42;;;;;;;;;;;;;;;;;;4204452;28;1367;-56
2022/04/03 07:48:03;;;;;;;;;;;;;;;;;;4204783;28;949;-56
2022/04/03 07:50:24;;;;;;;;;;;;;;;;;;4204868;28;1085;-56
2022/04/03 07:52:45;;;;;;;;;;;;;;;;;;4204416;28;969;-56
2022/04/03 07:55:06;;;;;;;;;;;;;;;;;;4204928;28;957;-56
2022/04/03 07:57:26;;;;;;;;;;;;;;;;;;4207740;28;1909;-56
2022/04/03 07:59:47;;;;;;;;;;;;;;;;;;4221228;28;991;-59
2022/04/03 08:02:08;;;;;;;;;;;;;;;;;;4221310;28;1021;-56
2022/04/03 08:04:28;;;;;;;;;;;;;;;;;;4220715;28;1494;-56
2022/04/03 08:06:49;;;;;;;;;;;;;;;;;;4219861;28;993;-56
2022/04/03 08:09:12;;;;;;;;;;;;;;;;;;4221553;28;1067;-56
2022/04/03 08:11:32;;;;;;;;;;;;;;;;;;4220853;28;987;-56
2022/04/03 08:13:53;;;;;;;;;;;;;;;;;;4203957;28;1044;-58
2022/04/03 08:16:14;;;;;;;;;;;;;;;;;;4211929;28;1213;-56
2022/04/03 08:18:35;;;;;;;;;;;;;;;;;;4220732;28;1901;-57
2022/04/03 08:20:56;;;;;;;;;;;;;;;;;;4220659;28;1698;-57
2022/04/03 08:23:17;;;;;;;;;;;;;;;;;;4221054;28;950;-57
2022/04/03 08:25:37;;;;;;;;;;;;;;;;;;4219113;28;954;-57
2022/04/03 08:27:59;;;;;;;;;;;;;;;;;;4222329;28;1240;-56
2022/04/03 08:30:20;;;;;;;;;;;;;;;;;;4223107;28;903;-58
2022/04/03 08:32:40;;;;;;;;;;;;;;;;;;4222872;28;1156;-57
2022/04/03 08:35:02;;;;;;;;;;;;;;;;;;4222226;28;1248;-57
2022/04/03 08:37:24;;;;;;;;;;;;;;;;;;4220669;28;1913;-52
2022/04/03 08:39:44;;;;;;;;;;;;;;;;;;4222959;28;1946;-54
2022/04/03 08:42:05;;;;;;;;;;;;;;;;;;4234520;28;1296;-53
2022/04/03 08:44:26;;;;;;;;;;;;;;;;;;4220722;28;1039;-53
2022/04/03 08:46:46;;;;;;;;;;;;;;;;;;4203276;28;3234;-52
2022/04/03 08:49:07;;;;;;;;;;;;;;;;;;4217755;28;1230;-53
2022/04/03 08:51:28;;;;;;;;;;;;;;;;;;4219703;28;973;-53
2022/04/03 08:53:49;;;;;;;;;;;;;;;;;;4220779;28;1459;-53
2022/04/03 08:56:10;;;;;;;;;;;;;;;;;;4215587;28;2714;-53
2022/04/03 08:58:30;;;;;;;;;;;;;;;;;;4203533;28;2738;-53
2022/04/03 09:00:51;;;;;;;;;;;;;;;;;;4204138;28;974;-53
2022/04/03 09:03:13;;;;;;;;;;;;;;;;;;4204786;28;974;-53
2022/04/03 09:05:33;;;;;;;;;;;;;;;;;;4204321;28;1192;-53
2022/04/03 09:07:54;;;;;;;;;;;;;;;;;;4205664;28;1211;-54
2022/04/03 09:10:16;;;;;;;;;;;;;;;;;;4204744;28;2056;-54
2022/04/03 09:12:36;;;;;;;;;;;;;;;;;;4213218;28;1224;-54
2022/04/03 09:14:57;;;;;;;;;;;;;;;;;;4205478;28;991;-53
2022/04/03 09:17:18;;;;;;;;;;;;;;;;;;4205466;28;1917;-54
2022/04/03 09:19:39;;;;;;;;;;;;;;;;;;4205090;28;926;-54
2022/04/03 09:22:00;;;;;;;;;;;;;;;;;;4207161;28;2018;-53
2022/04/03 09:24:21;;;;;;;;;;;;;;;;;;4204582;28;1113;-54
2022/04/03 09:26:42;;;;;;;;;;;;;;;;;;4202737;28;1023;-53
2022/04/03 09:29:02;;;;;;;;;;;;;;;;;;4207553;28;3055;-54
2022/04/03 09:31:23;;;;;;;;;;;;;;;;;;4212125;28;834;-54
2022/04/03 09:33:43;;;;;;;;;;;;;;;;;;4220673;28;991;-53
2022/04/03 09:36:04;;;;;;;;;;;;;;;;;;4218768;28;1218;-54
2022/04/03 09:38:25;;;;;;;;;;;;;;;;;;4218258;28;1914;-54
2022/04/03 09:40:47;;;;;;;;;;;;;;;;;;4217660;28;941;-54
2022/04/03 09:43:08;;;;;;;;;;;;;;;;;;4223156;28;1189;-54
2022/04/03 09:45:29;;;;;;;;;;;;;;;;;;4237789;28;1111;-54
2022/04/03 09:47:49;;;;;;;;;;;;;;;;;;4237188;27;1407;-54
2022/04/03 09:50:10;;;;;;;;;;;;;;;;;;4238155;27;1001;-56
2022/04/03 09:52:31;;;;;;;;;;;;;;;;;;4210095;28;2825;-54
2022/04/03 09:54:52;;;;;;;;;;;;;;;;;;4202940;28;3412;-54
2022/04/03 09:57:12;;;;;;;;;;;;;;;;;;4205662;28;1614;-54
2022/04/03 09:59:33;;;;;;;;;;;;;;;;;;4219839;28;1154;-54
2022/04/03 10:01:54;;;;;;;;;;;;;;;;;;4219982;28;981;-53
2022/04/03 10:04:15;;;;;;;;;;;;;;;;;;4220277;28;864;-55
2022/04/03 10:06:36;;;;;;;;;;;;;;;;;;4218935;28;1185;-54
2022/04/03 10:08:57;;;;;;;;;;;;;;;;;;4207827;28;1716;-54
2022/04/03 10:11:18;;;;;;;;;;;;;;;;;;4202720;28;965;-53
2022/04/03 10:13:39;;;;;;;;;;;;;;;;;;4217696;28;1199;-54
2022/04/03 10:16:00;;;;;;;;;;;;;;;;;;4219448;28;941;-53
2022/04/03 10:18:20;;;;;;;;;;;;;;;;;;4219635;28;1981;-54
2022/04/03 10:20:41;;;;;;;;;;;;;;;;;;4219173;28;982;-54
2022/04/03 10:23:02;;;;;;;;;;;;;;;;;;4219793;28;799;-54
2022/04/03 10:25:23;;;;;;;;;;;;;;;;;;4219371;28;1142;-53
2022/04/03 10:27:44;;;;;;;;;;;;;;;;;;4219330;28;1049;-53
2022/04/03 10:30:04;;;;;;;;;;;;;;;;;;4219661;28;1095;-54
2022/04/03 10:32:27;;;;;;;;;;;;;;;;;;4218820;28;999;-55
2022/04/03 10:34:49;;;;;;;;;;;;;;;;;;4219736;28;1403;-54
2022/04/03 10:37:10;;;;;;;;;;;;;;;;;;4219088;28;1082;-54
2022/04/03 10:39:32;;;;;;;;;;;;;;;;;;4218597;28;1983;-55
2022/04/03 10:41:52;;;;;;;;;;;;;;;;;;4216963;28;2599;-55
2022/04/03 10:44:13;;;;;;;;;;;;;;;;;;4216059;28;2162;-54
2022/04/03 10:46:33;;;;;;;;;;;;;;;;;;4215020;28;1352;-53
2022/04/03 10:48:54;;;;;;;;;;;;;;;;;;4218138;28;1099;-54
2022/04/03 10:51:16;;;;;;;;;;;;;;;;;;4218224;28;1075;-53
2022/04/03 10:53:36;;;;;;;;;;;;;;;;;;4217080;28;1044;-54
2022/04/03 10:55:57;;;;;;;;;;;;;;;;;;4217804;28;1005;-54
2022/04/03 10:58:17;;;;;;;;;;;;;;;;;;4217054;28;1975;-53
2022/04/03 11:00:39;;;;;;;;;;;;;;;;;;4213920;28;1197;-53
2022/04/03 11:02:59;;;;;;;;;;;;;;;;;;4217474;28;996;-58
2022/04/03 11:05:20;;;;;;;;;;;;;;;;;;4216908;28;1019;-57
2022/04/03 11:07:41;;;;;;;;;;;;;;;;;;4217360;28;1736;-59
2022/04/03 11:10:02;;;;;;;;;;;;;;;;;;4217365;28;1048;-59
2022/04/03 11:12:23;;;;;;;;;;;;;;;;;;4217111;28;1042;-58
2022/04/03 11:14:44;;;;;;;;;;;;;;;;;;4216721;28;1022;-58
2022/04/03 11:17:04;;;;;;;;;;;;;;;;;;4218491;28;924;-58
2022/04/03 11:19:25;;;;;;;;;;;;;;;;;;4218029;28;1913;-58
2022/04/03 11:21:46;;;;;;;;;;;;;;;;;;4215620;28;2110;-58
2022/04/03 11:24:14;;;;;;;;;;;;;;;;;;4217610;28;1009;-58
2022/04/03 11:27:00;;;;;;;;;;;;;;;;;;4219691;28;1174;-58
2022/04/03 11:29:21;;;;;;;;;;;;;;;;;;4220201;28;853;-57
2022/04/03 11:31:43;;;;;;;;;;;;;;;;;;4219883;28;1028;-59
2022/04/03 11:34:06;;;;;;;;;;;;;;;;;;4203141;28;992;-58
2022/04/03 11:36:27;;;;;;;;;;;;;;;;;;4204298;28;1230;-57
2022/04/03 11:38:48;;;;;;;;;;;;;;;;;;4206193;28;1988;-58
2022/04/03 11:41:09;;;;;;;;;;;;;;;;;;4206169;28;1065;-61
2022/04/03 11:43:30;;;;;;;;;;;;;;;;;;4205133;28;1184;-60
2022/04/03 11:45:50;;;;;;;;;;;;;;;;;;4203612;28;973;-61
2022/04/03 11:48:12;;;;;;;;;;;;;;;;;;4204306;28;902;-60
2022/04/03 11:50:35;;;;;;;;;;;;;;;;;;4212929;28;1439;-59
2022/04/03 11:52:56;;;;;;;;;;;;;;;;;;4219832;28;1424;-59
2022/04/03 11:55:16;;;;;;;;;;;;;;;;;;4219948;28;960;-59
2022/04/03 11:57:37;;;;;;;;;;;;;;;;;;4211853;28;2381;-59
2022/04/03 11:59:58;;;;;;;;;;;;;;;;;;4219948;28;1961;-59
2022/04/03 12:02:19;;;;;;;;;;;;;;;;;;4221302;28;1112;-59
2022/04/03 12:04:40;;;;;;;;;;;;;;;;;;4205286;28;827;-61
2022/04/03 12:07:01;;;;;;;;;;;;;;;;;;4205317;28;852;-63
2022/04/03 12:09:22;;;;;;;;;;;;;;;;;;4205316;28;877;-58
2022/04/03 12:11:45;;;;;;;;;;;;;;;;;;4204880;28;1225;-58
2022/04/03 12:14:05;;;;;;;;;;;;;;;;;;4203168;28;1077;-60
2022/04/03 12:16:26;;;;;;;;;;;;;;;;;;4205201;28;821;-60
2022/04/03 12:18:47;;;;;;;;;;;;;;;;;;4205533;28;1983;-59
2022/04/03 12:21:07;;;;;;;;;;;;;;;;;;4205845;28;998;-59
2022/04/03 12:23:28;;;;;;;;;;;;;;;;;;4205755;28;1634;-60
2022/04/03 12:25:49;;;;;;;;;;;;;;;;;;4205555;28;1780;-59
2022/04/03 12:28:10;;;;;;;;;;;;;;;;;;4218417;28;1987;-59
2022/04/03 12:30:30;;;;;;;;;;;;;;;;;;4202569;28;869;-59
2022/04/03 12:32:51;;;;;;;;;;;;;;;;;;4204909;28;1392;-58
2022/04/03 12:35:11;;;;;;;;;;;;;;;;;;4220803;28;959;-60
2022/04/03 12:37:32;;;;;;;;;;;;;;;;;;4219626;28;989;-59
2022/04/03 12:39:53;;;;;;;;;;;;;;;;;;4220433;28;1933;-60
2022/04/03 12:42:13;;;;;;;;;;;;;;;;;;4219485;28;1130;-59
2022/04/03 12:44:34;;;;;;;;;;;;;;;;;;4219452;28;838;-58
2022/04/03 12:46:55;;;;;;;;;;;;;;;;;;4199606;28;1178;-58
2022/04/03 12:49:15;;;;;;;;;;;;;;;;;;4202417;28;1145;-59
2022/04/03 12:51:37;;;;;;;;;;;;;;;;;;4210734;28;1600;-59
2022/04/03 12:53:59;;;;;;;;;;;;;;;;;;4206913;28;1017;-59
2022/04/03 12:58:24;;;;;;;;;;;;;;;;;;4204868;28;1090;-60
2022/04/03 12:58:59;;;;;;;;;;;;;;;;;;4222410;28;1981;-59
2022/04/03 13:01:20;;;;;;;;;;;;;;;;;;4222909;28;1079;-59
2022/04/03 13:03:41;;;;;;;;;;;;;;;;;;4219532;28;1333;-59
2022/04/03 13:06:02;;;;;;;;;;;;;;;;;;4218098;28;1751;-61
2022/04/03 13:08:23;;;;;;;;;;;;;;;;;;4218318;28;1473;-58
2022/04/03 13:10:43;;;;;;;;;;;;;;;;;;4203864;28;1977;-58
2022/04/03 13:13:04;;;;;;;;;;;;;;;;;;4216788;28;1600;-58
2022/04/03 13:15:25;;;;;;;;;;;;;;;;;;4218510;28;1064;-58
2022/04/03 13:17:46;;;;;;;;;;;;;;;;;;4218524;28;1089;-58
2022/04/03 13:20:07;;;;;;;;;;;;;;;;;;4218958;28;1995;-59
2022/04/03 13:22:27;;;;;;;;;;;;;;;;;;4218995;28;1002;-57
2022/04/03 13:24:48;;;;;;;;;;;;;;;;;;4218714;28;1195;-58
2022/04/03 13:27:10;;;;;;;;;;;;;;;;;;4216749;28;1320;-57
2022/04/03 13:29:32;;;;;;;;;;;;;;;;;;4218300;28;919;-58
2022/04/03 13:31:53;;;;;;;;;;;;;;;;;;4218289;28;1278;-58
2022/04/03 13:34:14;;;;;;;;;;;;;;;;;;4219088;28;1127;-58
2022/04/03 13:36:34;;;;;;;;;;;;;;;;;;4219447;28;890;-58
2022/04/03 13:38:55;;;;;;;;;;;;;;;;;;4218264;28;1939;-59
2022/04/03 13:41:16;;;;;;;;;;;;;;;;;;4218972;28;868;-58
2022/04/03 13:43:37;;;;;;;;;;;;;;;;;;4217995;28;1122;-58
2022/04/03 13:45:58;;;;;;;;;;;;;;;;;;4218675;28;1176;-59
2022/04/03 13:48:19;;;;;;;;;;;;;;;;;;4219281;28;1411;-58
2022/04/03 13:50:39;;;;;;;;;;;;;;;;;;4219258;28;1016;-58
2022/04/03 13:53:00;;;;;;;;;;;;;;;;;;4219664;28;1101;-57
2022/04/03 13:55:21;;;;;;;;;;;;;;;;;;4218072;28;1197;-58
2022/04/03 13:57:42;;;;;;;;;;;;;;;;;;4219170;28;1280;-58
2022/04/03 14:00:03;;;;;;;;;;;;;;;;;;4219109;28;1981;-57
2022/04/03 14:02:32;;;;;;;;;;;;;;;;;;4219876;28;989;-58
2022/04/03 14:04:53;;;;;;;;;;;;;;;;;;4219385;28;1136;-57
2022/04/03 14:07:13;;;;;;;;;;;;;;;;;;4219722;28;1016;-57
2022/04/03 14:09:36;;;;;;;;;;;;;;;;;;4219527;28;975;-57
2022/04/03 14:11:57;;;;;;;;;;;;;;;;;;4219399;28;1276;-57
2022/04/03 14:14:17;;;;;;;;;;;;;;;;;;4219125;28;1182;-57
2022/04/03 14:16:39;;;;;;;;;;;;;;;;;;4214404;28;2688;-60
2022/04/03 14:19:00;;;;;;;;;;;;;;;;;;4218100;28;1015;-57
2022/04/03 14:21:23;;;;;;;;;;;;;;;;;;4217716;28;1024;-57
2022/04/03 14:23:44;;;;;;;;;;;;;;;;;;4218720;28;1245;-57
2022/04/03 14:26:05;;;;;;;;;;;;;;;;;;4218875;28;1575;-57
2022/04/03 14:28:26;;;;;;;;;;;;;;;;;;4219477;28;1117;-57
2022/04/03 14:30:47;;;;;;;;;;;;;;;;;;4219721;28;1119;-58
2022/04/03 14:33:08;;;;;;;;;;;;;;;;;;4218859;28;1204;-57
2022/04/03 14:35:28;;;;;;;;;;;;;;;;;;4219224;28;1580;-57
2022/04/03 14:37:49;;;;;;;;;;;;;;;;;;4219108;28;981;-57
2022/04/03 14:40:10;;;;;;;;;;;;;;;;;;4219078;28;1914;-57
2022/04/03 14:42:30;;;;;;;;;;;;;;;;;;4217792;28;1984;-57
2022/04/03 14:44:51;;;;;;;;;;;;;;;;;;4204047;28;1233;-58
2022/04/03 14:47:12;;;;;;;;;;;;;;;;;;4204210;28;1223;-57
2022/04/03 14:49:32;;;;;;;;;;;;;;;;;;4203874;28;1114;-57
2022/04/03 14:51:54;;;;;;;;;;;;;;;;;;4203852;28;1526;-58
2022/04/03 14:54:14;;;;;;;;;;;;;;;;;;4220798;28;1578;-57
2022/04/03 14:56:35;;;;;;;;;;;;;;;;;;4218902;28;1538;-57
2022/04/03 14:58:57;;;;;;;;;;;;;;;;;;4220446;28;1705;-58
2022/04/03 15:01:17;;;;;;;;;;;;;;;;;;4220273;28;1749;-57
2022/04/03 15:03:38;;;;;;;;;;;;;;;;;;4219748;28;1696;-57
2022/04/03 15:05:58;;;;;;;;;;;;;;;;;;4220438;28;1487;-57
2022/04/03 15:08:19;;;;;;;;;;;;;;;;;;4220759;28;1021;-57
2022/04/03 15:10:40;;;;;;;;;;;;;;;;;;4220819;28;1226;-57
2022/04/03 15:13:01;;;;;;;;;;;;;;;;;;4220317;28;1499;-57
2022/04/03 15:15:22;;;;;;;;;;;;;;;;;;4220145;28;1063;-57
2022/04/03 15:17:43;;;;;;;;;;;;;;;;;;4219808;28;1211;-57
2022/04/03 15:20:04;;;;;;;;;;;;;;;;;;4219955;28;1989;-57
2022/04/03 15:22:24;;;;;;;;;;;;;;;;;;4219711;28;1481;-57
2022/04/03 15:24:46;;;;;;;;;;;;;;;;;;4220189;28;947;-58
2022/04/03 15:27:06;;;;;;;;;;;;;;;;;;4219550;28;1119;-57
2022/04/03 15:29:27;;;;;;;;;;;;;;;;;;4220183;28;955;-57
2022/04/03 15:31:49;;;;;;;;;;;;;;;;;;4220132;28;1107;-57
2022/04/03 15:34:11;;;;;;;;;;;;;;;;;;4220094;28;1430;-57
2022/04/03 15:36:32;;;;;;;;;;;;;;;;;;4219201;28;1097;-57
2022/04/03 15:38:52;;;;;;;;;;;;;;;;;;4219826;28;1191;-58
2022/04/03 15:41:13;;;;;;;;;;;;;;;;;;4220461;28;2020;-57
2022/04/03 15:43:34;;;;;;;;;;;;;;;;;;4219932;28;1368;-57
2022/04/03 15:45:55;;;;;;;;;;;;;;;;;;4222528;28;1051;-58
2022/04/03 15:48:16;;;;;;;;;;;;;;;;;;4222739;28;991;-59
2022/04/03 15:50:36;;;;;;;;;;;;;;;;;;4222513;28;1078;-58
2022/04/03 15:52:57;;;;;;;;;;;;;;;;;;4222194;28;1013;-59
2022/04/03 15:55:18;;;;;;;;;;;;;;;;;;4222379;28;1103;-58
2022/04/03 15:57:40;;;;;;;;;;;;;;;;;;4222611;28;936;-58
2022/04/03 16:00:01;;;;;;;;;;;;;;;;;;4222365;28;1973;-58
2022/04/03 16:02:22;;;;;;;;;;;;;;;;;;4222299;28;1182;-58
2022/04/03 16:04:43;;;;;;;;;;;;;;;;;;4221043;28;1387;-59
2022/04/03 16:07:03;;;;;;;;;;;;;;;;;;4222025;28;1236;-59
2022/04/03 16:09:24;;;;;;;;;;;;;;;;;;4222233;28;1575;-58
2022/04/03 16:11:45;;;;;;;;;;;;;;;;;;4221907;28;1101;-58
2022/04/03 16:14:05;;;;;;;;;;;;;;;;;;4204450;28;1004;-58
2022/04/03 16:16:27;;;;;;;;;;;;;;;;;;4218015;28;894;-58
2022/04/03 16:18:48;;;;;;;;;;;;;;;;;;4221332;28;900;-58
2022/04/03 16:21:09;;;;;;;;;;;;;;;;;;4220888;28;1909;-58
2022/04/03 16:23:30;;;;;;;;;;;;;;;;;;4221447;28;1234;-58
2022/04/03 16:25:50;;;;;;;;;;;;;;;;;;4220072;28;972;-59
2022/04/03 16:28:14;;;;;;;;;;;;;;;;;;4221513;28;1001;-58